Time;durP1;ratioP1;P1;durP2;ratioP2;P2;SDS_P1;SDS_P2;PMS_P1;PMS_P2;Temp;Humidity;BMP_temperature;BMP_pressure;BME280_temperature;BME280_humidity;BME280_pressure;Samples;Min_cycle;Max_cycle;Signal;HPM_P1;HPM_P2
2022/05/12 00:00:09;;;;;;;2.92;2.72;;;;;;;;;;5117253;28;20637;-59
2022/05/12 00:02:37;;;;;;;3.30;3.10;;;;;;;;;;5117063;28;20298;-58
2022/05/12 00:05:06;;;;;;;3.03;2.83;;;;;;;;;;5116846;28;20541;-59
2022/05/12 00:07:34;;;;;;;3.38;3.17;;;;;;;;;;5117064;28;20573;-59
2022/05/12 00:10:01;;;;;;;3.17;2.90;;;;;;;;;;5116881;28;20195;-59
2022/05/12 00:12:29;;;;;;;3.10;2.90;;;;;;;;;;5117363;28;20213;-59
2022/05/12 00:14:56;;;;;;;3.20;3.00;;;;;;;;;;5117780;28;20230;-58
2022/05/12 00:17:23;;;;;;;3.40;3.10;;;;;;;;;;5117733;28;20213;-59
2022/05/12 00:19:51;;;;;;;3.33;3.13;;;;;;;;;;5116590;28;20203;-60
2022/05/12 00:22:20;;;;;;;3.38;3.15;;;;;;;;;;5116927;28;20203;-59
2022/05/12 00:24:47;;;;;;;3.35;3.15;;;;;;;;;;5117327;28;20207;-59
2022/05/12 00:27:14;;;;;;;3.30;3.10;;;;;;;;;;5117517;28;20202;-59
2022/05/12 00:29:42;;;;;;;3.22;3.03;;;;;;;;;;5116478;28;20209;-60
2022/05/12 00:32:09;;;;;;;3.65;3.35;;;;;;;;;;5117722;28;20203;-59
2022/05/12 00:34:37;;;;;;;3.22;2.92;;;;;;;;;;5114180;28;20219;-59
2022/05/12 00:37:04;;;;;;;3.17;2.97;;;;;;;;;;5116902;28;20483;-59
2022/05/12 00:39:33;;;;;;;3.58;3.30;;;;;;;;;;5117134;28;20203;-59
2022/05/12 00:42:01;;;;;;;3.22;3.03;;;;;;;;;;5116806;28;20215;-59
2022/05/12 00:44:28;;;;;;;3.17;2.97;;;;;;;;;;5117338;28;20531;-59
2022/05/12 00:46:55;;;;;;;3.28;3.08;;;;;;;;;;5116968;28;20210;-59
2022/05/12 00:49:25;;;;;;;3.00;2.80;;;;;;;;;;5116422;28;20211;-59
2022/05/12 00:51:55;;;;;;;3.20;3.00;;;;;;;;;;5117413;28;20234;-59
2022/05/12 00:54:26;;;;;;;3.00;2.80;;;;;;;;;;5113154;28;20203;-59
2022/05/12 00:56:55;;;;;;;3.00;2.80;;;;;;;;;;5105862;28;20772;-60
2022/05/12 00:59:24;;;;;;;2.90;2.70;;;;;;;;;;5117286;28;20199;-60
2022/05/12 01:01:52;;;;;;;3.05;2.85;;;;;;;;;;5117292;28;20209;-60
2022/05/12 01:04:20;;;;;;;3.20;3.00;;;;;;;;;;5117117;28;20207;-59
2022/05/12 01:06:47;;;;;;;3.58;3.08;;;;;;;;;;5115571;28;20202;-59
2022/05/12 01:09:15;;;;;;;3.03;2.83;;;;;;;;;;5096969;28;20482;-60
2022/05/12 01:11:42;;;;;;;3.05;2.85;;;;;;;;;;5097587;28;20636;-60
2022/05/12 01:14:11;;;;;;;3.30;3.10;;;;;;;;;;5100773;28;20214;-59
2022/05/12 01:16:43;;;;;;;3.08;2.88;;;;;;;;;;5100470;28;20691;-59
2022/05/12 01:19:13;;;;;;;3.20;3.00;;;;;;;;;;5120819;28;20213;-60
2022/05/12 01:21:41;;;;;;;3.17;2.97;;;;;;;;;;5121011;28;20211;-59
2022/05/12 01:24:10;;;;;;;2.95;2.75;;;;;;;;;;5120344;28;20202;-59
2022/05/12 01:26:38;;;;;;;3.28;3.03;;;;;;;;;;5120678;28;20203;-59
2022/05/12 01:29:06;;;;;;;3.00;2.80;;;;;;;;;;5121242;28;20203;-59
2022/05/12 01:31:34;;;;;;;3.10;2.90;;;;;;;;;;5121055;28;20203;-59
2022/05/12 01:34:01;;;;;;;2.80;2.70;;;;;;;;;;5120020;28;20199;-59
2022/05/12 01:36:29;;;;;;;3.10;2.85;;;;;;;;;;5121223;28;20230;-60
2022/05/12 01:38:56;;;;;;;3.22;3.03;;;;;;;;;;5120360;28;20203;-59
2022/05/12 01:41:25;;;;;;;3.20;3.00;;;;;;;;;;5120879;28;20207;-59
2022/05/12 01:43:52;;;;;;;3.25;3.05;;;;;;;;;;5120727;28;20544;-59
2022/05/12 01:46:20;;;;;;;3.03;2.83;;;;;;;;;;5121266;28;20485;-59
2022/05/12 01:48:47;;;;;;;3.10;2.90;;;;;;;;;;5114959;28;20203;-59
2022/05/12 01:51:15;;;;;;;3.00;2.80;;;;;;;;;;5117700;28;20214;-60
2022/05/12 01:53:42;;;;;;;2.92;2.72;;;;;;;;;;5120341;28;20210;-59
2022/05/12 01:56:10;;;;;;;2.85;2.65;;;;;;;;;;5120945;28;20335;-60
2022/05/12 01:58:39;;;;;;;2.67;2.50;;;;;;;;;;5119757;28;20203;-59
2022/05/12 02:01:07;;;;;;;3.10;2.90;;;;;;;;;;5119195;28;20486;-60
2022/05/12 02:03:35;;;;;;;3.05;2.85;;;;;;;;;;5119972;28;20276;-60
2022/05/12 02:06:03;;;;;;;3.00;2.80;;;;;;;;;;5120071;28;20199;-60
2022/05/12 02:08:30;;;;;;;3.20;3.00;;;;;;;;;;5119839;28;20203;-60
2022/05/12 02:10:58;;;;;;;3.03;2.83;;;;;;;;;;5120152;28;20203;-60
2022/05/12 02:13:27;;;;;;;3.17;2.88;;;;;;;;;;5119848;28;20199;-59
2022/05/12 02:15:56;;;;;;;2.97;2.78;;;;;;;;;;5119635;28;20516;-60
2022/05/12 02:18:24;;;;;;;3.17;2.97;;;;;;;;;;5119798;28;20209;-59
2022/05/12 02:20:51;;;;;;;3.10;2.90;;;;;;;;;;5119837;28;20612;-60
2022/05/12 02:23:19;;;;;;;3.10;2.80;;;;;;;;;;5119576;28;20194;-60
2022/05/12 02:25:47;;;;;;;2.75;2.55;;;;;;;;;;5119773;28;20570;-59
2022/05/12 02:28:15;;;;;;;2.90;2.70;;;;;;;;;;5119549;28;20207;-61
2022/05/12 02:30:42;;;;;;;3.08;2.88;;;;;;;;;;5119287;28;20203;-60
2022/05/12 02:33:11;;;;;;;3.05;2.85;;;;;;;;;;5119358;28;20203;-60
2022/05/12 02:35:39;;;;;;;2.80;2.60;;;;;;;;;;5119246;28;20230;-60
2022/05/12 02:38:08;;;;;;;3.10;2.90;;;;;;;;;;5119992;28;20203;-59
2022/05/12 02:40:38;;;;;;;2.75;2.65;;;;;;;;;;5119139;28;20502;-60
2022/05/12 02:43:23;;;;;;;2.58;2.47;;;;;;;;;;5119435;28;20231;-60
2022/05/12 02:45:50;;;;;;;2.80;2.70;;;;;;;;;;5119491;28;20268;-60
2022/05/12 02:48:20;;;;;;;2.95;2.75;;;;;;;;;;5118803;28;20198;-60
2022/05/12 02:50:47;;;;;;;3.10;2.90;;;;;;;;;;5118887;28;20214;-60
2022/05/12 02:53:15;;;;;;;3.10;2.85;;;;;;;;;;5118555;28;20203;-60
2022/05/12 02:55:43;;;;;;;2.88;2.67;;;;;;;;;;5119123;28;20230;-60
2022/05/12 02:58:11;;;;;;;2.75;2.60;;;;;;;;;;5119599;28;20198;-60
2022/05/12 03:00:38;;;;;;;2.72;2.60;;;;;;;;;;5119164;28;20250;-60
2022/05/12 03:03:07;;;;;;;3.05;2.80;;;;;;;;;;5118828;28;20218;-59
2022/05/12 03:05:36;;;;;;;2.53;2.42;;;;;;;;;;5118793;28;20582;-59
2022/05/12 03:08:04;;;;;;;2.95;2.83;;;;;;;;;;5118897;28;20289;-60
2022/05/12 03:10:32;;;;;;;2.75;2.60;;;;;;;;;;5118849;28;20668;-59
2022/05/12 03:13:00;;;;;;;2.70;2.50;;;;;;;;;;5119064;28;20199;-59
2022/05/12 03:15:28;;;;;;;2.75;2.65;;;;;;;;;;5118700;28;20215;-60
2022/05/12 03:17:56;;;;;;;3.03;2.83;;;;;;;;;;5118655;28;20484;-59
2022/05/12 03:20:24;;;;;;;2.88;2.67;;;;;;;;;;5118299;28;20217;-60
2022/05/12 03:22:53;;;;;;;2.58;2.40;;;;;;;;;;5118587;28;20210;-60
2022/05/12 03:25:21;;;;;;;3.08;2.88;;;;;;;;;;5118781;28;20221;-59
2022/05/12 03:27:48;;;;;;;2.65;2.55;;;;;;;;;;5118136;28;20213;-59
2022/05/12 03:30:17;;;;;;;2.83;2.63;;;;;;;;;;5119462;28;20479;-59
2022/05/12 03:32:44;;;;;;;2.60;2.40;;;;;;;;;;5118218;28;20203;-59
2022/05/12 03:35:12;;;;;;;2.90;2.70;;;;;;;;;;5117533;28;20211;-60
2022/05/12 03:37:39;;;;;;;2.42;2.30;;;;;;;;;;5118260;28;20574;-59
2022/05/12 03:40:09;;;;;;;2.90;2.70;;;;;;;;;;5118055;28;20191;-59
2022/05/12 03:42:37;;;;;;;2.53;2.40;;;;;;;;;;5118150;28;20239;-59
2022/05/12 03:45:03;;;;;;;2.50;2.40;;;;;;;;;;5117701;28;20203;-60
2022/05/12 03:47:32;;;;;;;2.63;2.50;;;;;;;;;;5118683;28;20206;-60
2022/05/12 03:50:03;;;;;;;2.42;2.30;;;;;;;;;;5117839;28;20264;-60
2022/05/12 03:52:30;;;;;;;2.65;2.45;;;;;;;;;;5117447;28;20203;-59
2022/05/12 03:54:58;;;;;;;2.70;2.50;;;;;;;;;;5117638;28;20567;-59
2022/05/12 03:57:27;;;;;;;2.20;2.10;;;;;;;;;;5117900;28;20238;-60
2022/05/12 03:59:55;;;;;;;2.53;2.42;;;;;;;;;;5117721;28;20210;-60
2022/05/12 04:02:23;;;;;;;2.40;2.22;;;;;;;;;;5117700;28;20578;-59
2022/05/12 04:04:52;;;;;;;2.40;2.30;;;;;;;;;;5117106;28;20260;-59
2022/05/12 04:07:21;;;;;;;2.42;2.33;;;;;;;;;;5117241;28;20196;-59
2022/05/12 04:09:49;;;;;;;2.70;2.50;;;;;;;;;;5118158;28;20567;-60
2022/05/12 04:12:17;;;;;;;2.55;2.35;;;;;;;;;;5116707;28;20207;-60
2022/05/12 04:14:46;;;;;;;2.60;2.42;;;;;;;;;;5117597;28;20286;-60
2022/05/12 04:17:15;;;;;;;2.70;2.50;;;;;;;;;;5116963;28;20226;-60
2022/05/12 04:19:43;;;;;;;2.45;2.35;;;;;;;;;;5116678;28;20203;-60
2022/05/12 04:22:10;;;;;;;2.70;2.50;;;;;;;;;;5116061;28;20733;-60
2022/05/12 04:24:37;;;;;;;2.58;2.47;;;;;;;;;;5116781;28;20214;-60
2022/05/12 04:27:06;;;;;;;2.50;2.40;;;;;;;;;;5117200;28;20221;-59
2022/05/12 04:29:36;;;;;;;2.50;2.40;;;;;;;;;;5116953;28;20199;-58
2022/05/12 04:32:06;;;;;;;2.75;2.50;;;;;;;;;;5115976;28;20210;-58
2022/05/12 04:37:18;;;;;;;2.42;2.22;;;;;;;;;;5116679;28;20230;-59
2022/05/12 04:39:46;;;;;;;2.47;2.38;;;;;;;;;;5116538;28;20203;-59
2022/05/12 04:42:13;;;;;;;2.70;2.50;;;;;;;;;;5115830;28;20582;-60
2022/05/12 04:44:40;;;;;;;2.58;2.40;;;;;;;;;;5117225;28;20218;-60
2022/05/12 04:47:09;;;;;;;2.25;2.15;;;;;;;;;;5118864;28;20199;-60
2022/05/12 04:49:37;;;;;;;2.50;2.40;;;;;;;;;;5119878;28;20206;-59
2022/05/12 04:52:05;;;;;;;2.20;2.10;;;;;;;;;;5120172;28;20613;-60
2022/05/12 04:54:32;;;;;;;2.65;2.47;;;;;;;;;;5119361;28;20199;-59
2022/05/12 04:57:00;;;;;;;2.50;2.40;;;;;;;;;;5119249;28;20211;-59
2022/05/12 04:59:27;;;;;;;2.72;2.58;;;;;;;;;;5118458;28;20202;-59
2022/05/12 05:01:54;;;;;;;2.30;2.20;;;;;;;;;;5118175;28;20203;-59
2022/05/12 05:04:23;;;;;;;2.65;2.45;;;;;;;;;;5119188;28;20702;-60
2022/05/12 05:06:50;;;;;;;2.40;2.30;;;;;;;;;;5118651;28;20226;-60
2022/05/12 05:09:18;;;;;;;2.50;2.30;;;;;;;;;;5118932;28;20202;-59
2022/05/12 05:11:46;;;;;;;2.40;2.30;;;;;;;;;;5118549;28;20465;-59
2022/05/12 05:14:14;;;;;;;2.58;2.38;;;;;;;;;;5118295;28;20666;-59
2022/05/12 05:16:41;;;;;;;2.53;2.33;;;;;;;;;;5117742;28;20255;-59
2022/05/12 05:19:09;;;;;;;2.72;2.53;;;;;;;;;;5117575;28;20203;-59
2022/05/12 05:21:37;;;;;;;2.55;2.35;;;;;;;;;;5117331;28;20264;-60
2022/05/12 05:24:05;;;;;;;2.50;2.40;;;;;;;;;;5117175;28;20199;-59
2022/05/12 05:26:32;;;;;;;2.45;2.33;;;;;;;;;;5116607;28;20209;-59
2022/05/12 05:29:01;;;;;;;2.45;2.35;;;;;;;;;;5117370;28;20589;-59
2022/05/12 05:31:28;;;;;;;2.40;2.30;;;;;;;;;;5116995;28;20195;-59
2022/05/12 05:33:55;;;;;;;2.60;2.40;;;;;;;;;;5117737;28;20199;-60
2022/05/12 05:36:23;;;;;;;2.80;2.60;;;;;;;;;;5116949;28;20659;-59
2022/05/12 05:38:52;;;;;;;2.40;2.30;;;;;;;;;;5117331;28;20202;-59
2022/05/12 05:41:19;;;;;;;2.30;2.20;;;;;;;;;;5117384;28;20207;-60
2022/05/12 05:43:48;;;;;;;2.53;2.40;;;;;;;;;;5117391;28;20231;-59
2022/05/12 05:46:16;;;;;;;2.60;2.40;;;;;;;;;;5117333;28;20207;-60
2022/05/12 05:48:46;;;;;;;2.22;2.13;;;;;;;;;;5116813;28;20195;-60
2022/05/12 05:54:00;;;;;;;2.50;2.40;;;;;;;;;;5116724;28;20194;-59
2022/05/12 05:56:27;;;;;;;2.85;2.65;;;;;;;;;;5117267;28;20223;-60
2022/05/12 05:58:55;;;;;;;2.38;2.28;;;;;;;;;;5116420;28;20199;-60
2022/05/12 06:01:23;;;;;;;2.47;2.30;;;;;;;;;;5117035;28;20286;-60
2022/05/12 06:03:52;;;;;;;2.38;2.28;;;;;;;;;;5116658;28;20222;-59
2022/05/12 06:06:21;;;;;;;2.47;2.28;;;;;;;;;;5117538;28;20203;-59
2022/05/12 06:08:48;;;;;;;2.20;2.10;;;;;;;;;;5116276;28;20203;-61
2022/05/12 06:11:17;;;;;;;2.53;2.33;;;;;;;;;;5117101;28;20203;-59
2022/05/12 06:13:47;;;;;;;2.22;2.13;;;;;;;;;;5117443;28;20225;-58
2022/05/12 06:16:15;;;;;;;2.20;2.10;;;;;;;;;;5116015;28;20225;-60
2022/05/12 06:18:42;;;;;;;2.20;2.10;;;;;;;;;;5117426;28;20264;-60
2022/05/12 06:21:12;;;;;;;2.20;2.10;;;;;;;;;;5117695;28;20202;-60
2022/05/12 06:23:39;;;;;;;2.28;2.17;;;;;;;;;;5117882;28;20203;-60
2022/05/12 06:26:13;;;;;;;2.13;2.03;;;;;;;;;;5117313;28;20203;-60
2022/05/12 06:28:42;;;;;;;2.33;2.13;;;;;;;;;;5117275;28;20203;-59
2022/05/12 06:31:10;;;;;;;2.40;2.30;;;;;;;;;;5116737;28;20203;-60
2022/05/12 06:33:37;;;;;;;2.10;2.00;;;;;;;;;;5116696;28;20203;-60
2022/05/12 06:36:05;;;;;;;2.17;2.08;;;;;;;;;;5116674;28;20199;-59
2022/05/12 06:38:34;;;;;;;2.13;2.03;;;;;;;;;;5116731;28;20606;-59
2022/05/12 06:41:01;;;;;;;2.30;2.10;;;;;;;;;;5116974;28;20213;-59
2022/05/12 06:43:29;;;;;;;2.53;2.40;;;;;;;;;;5115167;28;20235;-58
2022/05/12 06:45:58;;;;;;;2.20;2.05;;;;;;;;;;5116656;28;20203;-58
2022/05/12 06:48:26;;;;;;;2.35;1.90;;;;;;;;;;5117483;28;20256;-59
2022/05/12 06:50:54;;;;;;;2.30;2.20;;;;;;;;;;5117197;28;20207;-59
2022/05/12 06:53:21;;;;;;;2.28;2.17;;;;;;;;;;5116273;28;20210;-59
2022/05/12 06:55:48;;;;;;;1.90;1.80;;;;;;;;;;5116193;28;20203;-59
2022/05/12 06:58:17;;;;;;;2.33;2.20;;;;;;;;;;5116519;28;20222;-59
2022/05/12 07:00:45;;;;;;;2.00;1.90;;;;;;;;;;5115427;28;20484;-59
2022/05/12 07:03:13;;;;;;;2.35;2.17;;;;;;;;;;5115933;28;20195;-59
2022/05/12 07:05:41;;;;;;;2.20;2.10;;;;;;;;;;5115009;28;20512;-59
2022/05/12 07:08:09;;;;;;;2.13;2.03;;;;;;;;;;5114893;28;20241;-59
2022/05/12 07:10:36;;;;;;;2.20;2.10;;;;;;;;;;5114375;28;20475;-59
2022/05/12 07:13:04;;;;;;;2.10;2.00;;;;;;;;;;5114861;28;20202;-59
2022/05/12 07:15:31;;;;;;;2.38;2.25;;;;;;;;;;5115405;28;20198;-59
2022/05/12 07:18:00;;;;;;;2.10;2.00;;;;;;;;;;5116766;28;20254;-59
2022/05/12 07:28:45;;;;;;;2.15;2.05;;;;;;;;;;5115547;28;20198;-59
2022/05/12 07:31:12;;;;;;;2.20;2.10;;;;;;;;;;5116167;28;20249;-59
2022/05/12 07:33:41;;;;;;;2.22;2.00;;;;;;;;;;5114665;28;20571;-59
2022/05/12 07:36:12;;;;;;;2.10;1.90;;;;;;;;;;5115177;28;20213;-59
2022/05/12 07:38:39;;;;;;;2.17;2.08;;;;;;;;;;5114999;28;20205;-59
2022/05/12 07:41:09;;;;;;;2.22;2.03;;;;;;;;;;5114628;28;20199;-59
2022/05/12 07:43:38;;;;;;;2.15;1.90;;;;;;;;;;5114591;28;20571;-59
2022/05/12 07:46:06;;;;;;;2.00;1.90;;;;;;;;;;5114963;28;20287;-60
2022/05/12 07:48:33;;;;;;;2.00;1.90;;;;;;;;;;5115127;28;20198;-59
2022/05/12 07:51:01;;;;;;;1.70;1.60;;;;;;;;;;5114574;28;20199;-59
2022/05/12 07:53:29;;;;;;;2.25;2.15;;;;;;;;;;5115006;28;20203;-59
2022/05/12 07:55:57;;;;;;;2.15;2.05;;;;;;;;;;5114747;28;20213;-59
2022/05/12 07:58:24;;;;;;;1.95;1.85;;;;;;;;;;5114639;28;20226;-61
2022/05/12 08:00:53;;;;;;;1.90;1.80;;;;;;;;;;5113997;28;20198;-59
2022/05/12 08:03:20;;;;;;;2.20;2.00;;;;;;;;;;5114519;28;20530;-59
2022/05/12 08:05:49;;;;;;;2.10;2.00;;;;;;;;;;5114455;28;20245;-59
2022/05/12 08:08:16;;;;;;;2.10;2.00;;;;;;;;;;5114752;28;20191;-59
2022/05/12 08:10:45;;;;;;;2.20;2.10;;;;;;;;;;5114943;28;20480;-59
2022/05/12 08:13:16;;;;;;;1.90;1.80;;;;;;;;;;5115771;28;20501;-59
2022/05/12 08:15:44;;;;;;;2.30;2.20;;;;;;;;;;5115945;28;20628;-59
2022/05/12 08:18:11;;;;;;;2.17;1.90;;;;;;;;;;5115412;28;20222;-59
2022/05/12 08:20:39;;;;;;;1.92;1.83;;;;;;;;;;5115142;28;20194;-59
2022/05/12 08:23:07;;;;;;;2.00;1.90;;;;;;;;;;5117867;28;20206;-59
2022/05/12 08:25:36;;;;;;;1.85;1.75;;;;;;;;;;5118782;28;20199;-59
2022/05/12 08:28:05;;;;;;;1.85;1.75;;;;;;;;;;5119396;28;20199;-59
2022/05/12 08:30:33;;;;;;;2.05;1.90;;;;;;;;;;5120008;28;20203;-59
2022/05/12 08:33:00;;;;;;;1.90;1.80;;;;;;;;;;5120065;28;20596;-59
2022/05/12 08:35:28;;;;;;;2.10;1.90;;;;;;;;;;5119750;28;20203;-59
2022/05/12 08:37:56;;;;;;;1.88;1.77;;;;;;;;;;5119663;28;20226;-59
2022/05/12 08:40:30;;;;;;;1.95;1.80;;;;;;;;;;5119241;28;20218;-59
2022/05/12 08:42:58;;;;;;;2.33;1.80;;;;;;;;;;5118457;28;20234;-59
2022/05/12 08:45:27;;;;;;;2.10;1.90;;;;;;;;;;5118452;28;20195;-59
2022/05/12 08:47:55;;;;;;;2.05;1.90;;;;;;;;;;5119268;28;20533;-59
2022/05/12 08:50:25;;;;;;;2.40;2.20;;;;;;;;;;5119370;28;20207;-59
2022/05/12 08:52:54;;;;;;;1.75;1.65;;;;;;;;;;5119051;28;20230;-59
2022/05/12 08:55:24;;;;;;;1.85;1.75;;;;;;;;;;5119580;28;20237;-59
2022/05/12 08:57:56;;;;;;;2.10;1.90;;;;;;;;;;5118387;28;20226;-59
2022/05/12 09:00:23;;;;;;;2.45;2.00;;;;;;;;;;5118299;28;20289;-59
2022/05/12 09:02:59;;;;;;;2.70;2.03;;;;;;;;;;5118732;28;20203;-59
2022/05/12 09:05:28;;;;;;;2.50;1.88;;;;;;;;;;5118794;28;20198;-59
2022/05/12 09:07:59;;;;;;;2.10;1.90;;;;;;;;;;5118889;28;20199;-59
2022/05/12 09:10:34;;;;;;;1.85;1.75;;;;;;;;;;5118361;28;20203;-59
2022/05/12 09:13:04;;;;;;;3.22;2.08;;;;;;;;;;5118369;28;20226;-59
2022/05/12 09:15:32;;;;;;;2.38;2.17;;;;;;;;;;5118186;28;20210;-59
2022/05/12 09:18:02;;;;;;;2.40;2.20;;;;;;;;;;5117617;28;20227;-59
2022/05/12 09:20:31;;;;;;;2.25;2.05;;;;;;;;;;5116967;28;20613;-59
2022/05/12 09:22:59;;;;;;;2.10;1.90;;;;;;;;;;5118002;28;20203;-60
2022/05/12 09:25:35;;;;;;;2.67;1.80;;;;;;;;;;5117943;28;20213;-60
2022/05/12 09:28:17;;;;;;;2.60;1.92;;;;;;;;;;5117609;28;20207;-60
2022/05/12 09:30:44;;;;;;;2.55;1.98;;;;;;;;;;5117495;28;20605;-60
2022/05/12 09:33:13;;;;;;;2.13;1.95;;;;;;;;;;5117096;28;20203;-60
2022/05/12 09:35:41;;;;;;;2.50;2.03;;;;;;;;;;5117009;28;20203;-59
2022/05/12 09:38:22;;;;;;;2.97;2.10;;;;;;;;;;5116935;28;20666;-60
2022/05/12 09:40:50;;;;;;;2.28;2.00;;;;;;;;;;5117382;28;20209;-59
2022/05/12 09:43:19;;;;;;;2.00;1.80;;;;;;;;;;5105289;28;20227;-59
2022/05/12 09:45:59;;;;;;;2.40;2.10;;;;;;;;;;5095921;28;20202;-59
2022/05/12 09:48:29;;;;;;;2.67;2.10;;;;;;;;;;5095504;28;20844;-60
2022/05/12 09:51:13;;;;;;;2.97;2.38;;;;;;;;;;5096301;28;20298;-60
2022/05/12 09:53:40;;;;;;;2.15;2.00;;;;;;;;;;5096009;28;20213;-59
2022/05/12 09:56:09;;;;;;;2.22;2.03;;;;;;;;;;5095817;28;20219;-60
2022/05/12 09:58:38;;;;;;;2.22;2.03;;;;;;;;;;5095769;28;20238;-60
2022/05/12 10:01:09;;;;;;;3.08;2.33;;;;;;;;;;5096383;28;20204;-59
2022/05/12 10:09:15;;;;;;;3.85;2.00;;;;;;;;;;5095220;28;20486;-60
2022/05/12 10:11:45;;;;;;;2.17;1.98;;;;;;;;;;5095248;28;20199;-60
2022/05/12 10:14:18;;;;;;;3.08;2.05;;;;;;;;;;5094924;28;20191;-60
2022/05/12 10:16:45;;;;;;;2.28;1.80;;;;;;;;;;5095454;28;20208;-59
2022/05/12 10:19:22;;;;;;;2.20;2.00;;;;;;;;;;5090196;28;20458;-60
2022/05/12 10:21:53;;;;;;;2.03;1.88;;;;;;;;;;5076133;28;20204;-59
2022/05/12 10:24:23;;;;;;;1.80;1.70;;;;;;;;;;5075680;28;20212;-60
2022/05/12 10:26:51;;;;;;;1.83;1.70;;;;;;;;;;5075179;28;20196;-60
2022/05/12 10:29:26;;;;;;;2.10;1.80;;;;;;;;;;5075303;28;20288;-60
2022/05/12 10:31:57;;;;;;;1.92;1.83;;;;;;;;;;5074982;28;20206;-59
2022/05/12 10:34:36;;;;;;;2.50;1.80;;;;;;;;;;5073761;28;20204;-60
2022/05/12 10:37:09;;;;;;;2.10;1.90;;;;;;;;;;5083447;28;20198;-60
2022/05/12 10:39:43;;;;;;;2.00;1.80;;;;;;;;;;5094946;28;20203;-60
2022/05/12 10:42:17;;;;;;;1.90;1.80;;;;;;;;;;5096655;28;20203;-60
2022/05/12 10:44:53;;;;;;;2.17;1.92;;;;;;;;;;5115145;28;20206;-60
2022/05/12 10:47:25;;;;;;;1.70;1.60;;;;;;;;;;5115192;28;20206;-60
2022/05/12 10:50:00;;;;;;;2.20;1.90;;;;;;;;;;5111637;28;20225;-60
2022/05/12 10:52:30;;;;;;;1.90;1.80;;;;;;;;;;5094364;28;20207;-60
2022/05/12 10:55:04;;;;;;;2.00;1.80;;;;;;;;;;5093979;28;20294;-60
2022/05/12 10:57:35;;;;;;;2.13;1.75;;;;;;;;;;5094024;28;20195;-60
2022/05/12 11:00:23;;;;;;;2.08;1.92;;;;;;;;;;5103391;28;20241;-60
2022/05/12 11:02:53;;;;;;;2.53;1.67;;;;;;;;;;5115313;28;20203;-60
2022/05/12 11:05:28;;;;;;;2.53;1.88;;;;;;;;;;5114401;28;20210;-60
2022/05/12 11:07:58;;;;;;;3.15;1.80;;;;;;;;;;5114497;28;20199;-60
2022/05/12 11:10:28;;;;;;;1.92;1.70;;;;;;;;;;5113943;28;20202;-60
2022/05/12 11:13:00;;;;;;;1.70;1.60;;;;;;;;;;5114735;28;20206;-60
2022/05/12 11:15:28;;;;;;;2.22;1.70;;;;;;;;;;5114873;28;20298;-60
2022/05/12 11:17:58;;;;;;;1.90;1.80;;;;;;;;;;5114784;28;20233;-60
2022/05/12 11:20:27;;;;;;;2.70;1.80;;;;;;;;;;5114812;28;20589;-60
2022/05/12 11:23:00;;;;;;;2.55;1.60;;;;;;;;;;5114622;28;20667;-60
2022/05/12 11:25:30;;;;;;;1.75;1.60;;;;;;;;;;5114246;28;20733;-60
2022/05/12 11:30:45;;;;;;;3.83;1.88;;;;;;;;;;5113275;28;20187;-60
2022/05/12 11:33:22;;;;;;;3.42;1.77;;;;;;;;;;5114774;28;20806;-60
2022/05/12 11:35:51;;;;;;;3.08;1.70;;;;;;;;;;5113927;28;20232;-61
2022/05/12 11:38:37;;;;;;;2.15;1.92;;;;;;;;;;5113352;28;20230;-60
2022/05/12 11:41:07;;;;;;;2.15;1.95;;;;;;;;;;5113599;28;20203;-60
2022/05/12 11:46:30;;;;;;;2.95;1.80;;;;;;;;;;5112527;28;20198;-61
2022/05/12 11:49:00;;;;;;;3.63;1.80;;;;;;;;;;5112977;28;20586;-59
2022/05/12 11:51:33;;;;;;;2.72;1.50;;;;;;;;;;5113337;28;20207;-61
2022/05/12 11:54:01;;;;;;;4.07;1.92;;;;;;;;;;5114010;28;20574;-60
2022/05/12 11:56:44;;;;;;;3.13;1.60;;;;;;;;;;5113043;28;20571;-60
2022/05/12 11:59:17;;;;;;;2.58;1.70;;;;;;;;;;5114306;28;20222;-60
2022/05/12 12:01:54;;;;;;;1.80;1.58;;;;;;;;;;5114358;28;20222;-60
2022/05/12 12:04:36;;;;;;;11.27;2.88;;;;;;;;;;5114883;28;20194;-60
2022/05/12 12:07:04;;;;;;;13.02;2.60;;;;;;;;;;5113380;28;20748;-59
2022/05/12 12:09:46;;;;;;;5.65;1.88;;;;;;;;;;5112987;28;20198;-60
2022/05/12 12:12:42;;;;;;;5.32;2.00;;;;;;;;;;5108709;28;20459;-60
2022/05/12 12:15:12;;;;;;;8.07;2.17;;;;;;;;;;5114090;28;20260;-59
2022/05/12 12:17:41;;;;;;;4.53;1.90;;;;;;;;;;5113035;28;20198;-60
2022/05/12 12:20:11;;;;;;;9.85;2.50;;;;;;;;;;5112070;28;20203;-59
2022/05/12 12:22:43;;;;;;;5.07;2.05;;;;;;;;;;5112880;28;20202;-59
2022/05/12 12:25:20;;;;;;;5.88;1.80;;;;;;;;;;5112157;28;20195;-60
2022/05/12 12:28:03;;;;;;;3.13;1.80;;;;;;;;;;5112530;28;20203;-60
2022/05/12 12:30:39;;;;;;;4.88;1.92;;;;;;;;;;5111642;28;20535;-60
2022/05/12 12:33:13;;;;;;;4.97;1.92;;;;;;;;;;5111541;28;20612;-60
2022/05/12 12:35:51;;;;;;;5.93;2.10;;;;;;;;;;5111803;28;20203;-59
2022/05/12 12:38:33;;;;;;;3.22;1.80;;;;;;;;;;5111048;28;20322;-58
2022/05/12 12:41:01;;;;;;;5.13;1.60;;;;;;;;;;5108849;28;20300;-58
2022/05/12 12:43:38;;;;;;;3.72;1.80;;;;;;;;;;5109892;28;20328;-58
2022/05/12 12:46:14;;;;;;;3.78;1.70;;;;;;;;;;5110056;28;20207;-58
2022/05/12 12:48:47;;;;;;;1.70;1.42;;;;;;;;;;5111537;28;20199;-58
2022/05/12 12:51:14;;;;;;;2.47;1.35;;;;;;;;;;5111913;28;20203;-58
2022/05/12 12:56:35;;;;;;;2.85;1.50;;;;;;;;;;5109881;28;20186;-58
2022/05/12 12:59:06;;;;;;;2.85;1.40;;;;;;;;;;5110963;28;20280;-58
2022/05/12 13:01:39;;;;;;;2.00;1.40;;;;;;;;;;5109469;28;20203;-58
2022/05/12 13:04:09;;;;;;;2.92;1.50;;;;;;;;;;5110387;28;20233;-58
2022/05/12 13:06:39;;;;;;;4.72;1.50;;;;;;;;;;5110752;28;20206;-58
2022/05/12 13:09:11;;;;;;;3.47;1.33;;;;;;;;;;5114320;28;20762;-58
2022/05/12 13:11:40;;;;;;;2.47;1.77;;;;;;;;;;5113530;28;20236;-58
2022/05/12 13:14:11;;;;;;;1.90;1.50;;;;;;;;;;5113758;28;20306;-58
2022/05/12 13:16:39;;;;;;;7.13;1.30;;;;;;;;;;5110061;28;20199;-58
2022/05/12 13:19:08;;;;;;;6.63;1.42;;;;;;;;;;5110355;28;20288;-58
2022/05/12 13:21:37;;;;;;;2.85;1.60;;;;;;;;;;5115197;28;20597;-58
2022/05/12 13:24:06;;;;;;;3.95;1.30;;;;;;;;;;5113566;28;20202;-58
2022/05/12 13:26:36;;;;;;;1.98;1.30;;;;;;;;;;5114521;28;20202;-57
2022/05/12 13:29:05;;;;;;;1.92;1.33;;;;;;;;;;5113806;28;20195;-58
2022/05/12 13:31:37;;;;;;;4.15;1.30;;;;;;;;;;5114617;28;20201;-58
2022/05/12 13:34:07;;;;;;;2.97;1.40;;;;;;;;;;5113369;28;20194;-59
2022/05/12 13:36:36;;;;;;;1.42;1.15;;;;;;;;;;5114541;28;20207;-58
2022/05/12 13:39:04;;;;;;;1.77;1.40;;;;;;;;;;5114642;28;20629;-58
2022/05/12 13:41:35;;;;;;;1.83;1.27;;;;;;;;;;5113508;28;20298;-58
2022/05/12 13:44:07;;;;;;;2.80;1.38;;;;;;;;;;5115305;28;20234;-58
2022/05/12 13:46:37;;;;;;;3.00;1.60;;;;;;;;;;5116744;28;20199;-63
2022/05/12 13:49:06;;;;;;;2.92;1.30;;;;;;;;;;5115514;28;20198;-58
2022/05/12 13:51:44;;;;;;;3.42;1.48;;;;;;;;;;5114809;28;20199;-58
2022/05/12 13:54:23;;;;;;;2.08;1.40;;;;;;;;;;5114863;28;20250;-58
2022/05/12 13:56:50;;;;;;;2.97;1.30;;;;;;;;;;5117271;28;20205;-57
2022/05/12 13:59:24;;;;;;;4.03;1.50;;;;;;;;;;5116293;28;20223;-58
2022/05/12 14:01:54;;;;;;;2.42;1.50;;;;;;;;;;5116406;28;20196;-58
2022/05/12 14:04:22;;;;;;;3.63;1.60;;;;;;;;;;5115647;28;20521;-58
2022/05/12 14:06:54;;;;;;;1.70;1.30;;;;;;;;;;5116453;28;20522;-58
2022/05/12 14:09:25;;;;;;;2.28;1.45;;;;;;;;;;5114421;28;20208;-58
2022/05/12 14:12:06;;;;;;;2.45;1.48;;;;;;;;;;5115984;28;20275;-58
2022/05/12 14:20:18;;;;;;;1.77;1.50;;;;;;;;;;5115440;28;20304;-59
2022/05/12 14:22:46;;;;;;;1.95;1.40;;;;;;;;;;5115511;28;20706;-58
2022/05/12 14:25:14;;;;;;;1.98;1.30;;;;;;;;;;5115673;28;20302;-58
2022/05/12 14:27:42;;;;;;;3.15;1.40;;;;;;;;;;5115430;28;20256;-58
2022/05/12 14:30:10;;;;;;;2.67;1.50;;;;;;;;;;5115221;28;20199;-58
2022/05/12 14:32:40;;;;;;;1.85;1.30;;;;;;;;;;5114947;28;20206;-57
2022/05/12 14:35:09;;;;;;;3.85;1.65;;;;;;;;;;5115567;28;20199;-57
2022/05/12 14:37:37;;;;;;;2.78;1.40;;;;;;;;;;5115846;28;20302;-58
2022/05/12 14:40:06;;;;;;;1.30;1.20;;;;;;;;;;5115726;28;20280;-58
2022/05/12 14:42:33;;;;;;;2.70;1.45;;;;;;;;;;5116252;28;20243;-57
2022/05/12 14:45:01;;;;;;;1.73;1.40;;;;;;;;;;5115875;28;20210;-58
2022/05/12 14:47:30;;;;;;;1.83;1.38;;;;;;;;;;5114683;28;20209;-57
2022/05/12 14:49:59;;;;;;;3.35;1.50;;;;;;;;;;5114790;28;20199;-58
2022/05/12 14:52:27;;;;;;;2.22;1.33;;;;;;;;;;5115518;28;20308;-57
2022/05/12 14:54:55;;;;;;;3.58;1.60;;;;;;;;;;5115013;28;20604;-58
2022/05/12 14:57:23;;;;;;;3.35;1.50;;;;;;;;;;5114868;28;20614;-58
2022/05/12 14:59:51;;;;;;;3.10;1.77;;;;;;;;;;5113462;28;20222;-58
2022/05/12 15:02:20;;;;;;;2.30;1.70;;;;;;;;;;5114274;28;20199;-58
2022/05/12 15:04:50;;;;;;;2.15;1.55;;;;;;;;;;5111872;28;20302;-58
2022/05/12 15:07:19;;;;;;;5.30;1.73;;;;;;;;;;5111825;28;20203;-58
2022/05/12 15:09:46;;;;;;;3.40;1.50;;;;;;;;;;5110806;28;20578;-58
2022/05/12 15:12:14;;;;;;;2.05;1.50;;;;;;;;;;5112360;28;20214;-58
2022/05/12 15:14:43;;;;;;;1.52;1.42;;;;;;;;;;5112907;28;20312;-58
2022/05/12 15:17:13;;;;;;;2.30;1.50;;;;;;;;;;5112311;28;20232;-58
2022/05/12 15:19:40;;;;;;;2.50;1.70;;;;;;;;;;5111658;28;20229;-58
2022/05/12 15:22:09;;;;;;;3.25;1.60;;;;;;;;;;5111826;28;20717;-58
2022/05/12 15:24:38;;;;;;;2.47;1.65;;;;;;;;;;5110262;28;20508;-58
2022/05/12 15:27:07;;;;;;;1.88;1.40;;;;;;;;;;5111294;28;20202;-58
2022/05/12 15:29:36;;;;;;;3.20;1.60;;;;;;;;;;5110981;28;20709;-58